sensor_id;sensor_type;location;lat;lon;timestamp;P1;durP1;ratioP1;P2;durP2;ratioP2
32130;SDS011;18639;50.716;7.086;2022-12-07T00:03:31;8.38;;;2.47;;
32130;SDS011;18639;50.716;7.086;2022-12-07T00:05:57;9.40;;;3.72;;
32130;SDS011;18639;50.716;7.086;2022-12-07T00:08:23;6.97;;;2.22;;
32130;SDS011;18639;50.716;7.086;2022-12-07T00:10:48;7.07;;;3.05;;
32130;SDS011;18639;50.716;7.086;2022-12-07T00:13:14;9.15;;;2.80;;
32130;SDS011;18639;50.716;7.086;2022-12-07T00:15:39;6.35;;;2.53;;
32130;SDS011;18639;50.716;7.086;2022-12-07T00:18:04;9.27;;;3.22;;
32130;SDS011;18639;50.716;7.086;2022-12-07T00:20:29;6.35;;;2.63;;
32130;SDS011;18639;50.716;7.086;2022-12-07T00:22:57;9.00;;;3.17;;
32130;SDS011;18639;50.716;7.086;2022-12-07T00:25:22;7.25;;;3.17;;
32130;SDS011;18639;50.716;7.086;2022-12-07T00:27:47;10.70;;;3.38;;
32130;SDS011;18639;50.716;7.086;2022-12-07T00:30:13;12.05;;;3.28;;
32130;SDS011;18639;50.716;7.086;2022-12-07T00:32:38;9.75;;;2.78;;
32130;SDS011;18639;50.716;7.086;2022-12-07T00:35:03;10.88;;;3.13;;
32130;SDS011;18639;50.716;7.086;2022-12-07T00:37:29;8.20;;;2.70;;
32130;SDS011;18639;50.716;7.086;2022-12-07T00:39:54;10.02;;;3.03;;
32130;SDS011;18639;50.716;7.086;2022-12-07T00:42:20;9.98;;;3.22;;
32130;SDS011;18639;50.716;7.086;2022-12-07T00:44:45;6.60;;;3.08;;
32130;SDS011;18639;50.716;7.086;2022-12-07T00:47:10;6.70;;;3.00;;
32130;SDS011;18639;50.716;7.086;2022-12-07T00:49:35;7.60;;;2.78;;
32130;SDS011;18639;50.716;7.086;2022-12-07T00:52:01;8.15;;;2.72;;
32130;SDS011;18639;50.716;7.086;2022-12-07T00:54:26;8.27;;;2.78;;
32130;SDS011;18639;50.716;7.086;2022-12-07T00:56:51;7.07;;;2.75;;
32130;SDS011;18639;50.716;7.086;2022-12-07T00:59:17;8.02;;;2.63;;
32130;SDS011;18639;50.716;7.086;2022-12-07T01:01:42;6.20;;;2.95;;
32130;SDS011;18639;50.716;7.086;2022-12-07T01:04:07;10.45;;;3.45;;
32130;SDS011;18639;50.716;7.086;2022-12-07T01:06:33;8.73;;;3.13;;
32130;SDS011;18639;50.716;7.086;2022-12-07T01:08:58;6.72;;;2.95;;
32130;SDS011;18639;50.716;7.086;2022-12-07T01:11:25;9.65;;;3.00;;
32130;SDS011;18639;50.716;7.086;2022-12-07T01:13:53;7.32;;;2.75;;
32130;SDS011;18639;50.716;7.086;2022-12-07T01:16:21;7.18;;;2.95;;
32130;SDS011;18639;50.716;7.086;2022-12-07T01:18:48;9.10;;;2.70;;
32130;SDS011;18639;50.716;7.086;2022-12-07T01:21:34;9.77;;;3.28;;
32130;SDS011;18639;50.716;7.086;2022-12-07T01:24:02;9.10;;;3.03;;
32130;SDS011;18639;50.716;7.086;2022-12-07T01:26:29;10.13;;;3.33;;
32130;SDS011;18639;50.716;7.086;2022-12-07T01:28:54;7.57;;;3.03;;
32130;SDS011;18639;50.716;7.086;2022-12-07T01:31:21;9.70;;;2.65;;
32130;SDS011;18639;50.716;7.086;2022-12-07T01:33:49;8.43;;;2.45;;
32130;SDS011;18639;50.716;7.086;2022-12-07T01:36:17;7.80;;;2.85;;
32130;SDS011;18639;50.716;7.086;2022-12-07T01:38:47;9.10;;;3.20;;
32130;SDS011;18639;50.716;7.086;2022-12-07T01:41:16;6.70;;;2.47;;
32130;SDS011;18639;50.716;7.086;2022-12-07T01:46:45;8.13;;;3.50;;
32130;SDS011;18639;50.716;7.086;2022-12-07T01:49:31;7.47;;;3.28;;
32130;SDS011;18639;50.716;7.086;2022-12-07T01:52:07;13.30;;;3.15;;
32130;SDS011;18639;50.716;7.086;2022-12-07T01:54:34;7.63;;;3.45;;
32130;SDS011;18639;50.716;7.086;2022-12-07T01:57:00;7.00;;;3.08;;
32130;SDS011;18639;50.716;7.086;2022-12-07T01:59:26;8.73;;;2.90;;
32130;SDS011;18639;50.716;7.086;2022-12-07T02:01:53;8.55;;;3.70;;
32130;SDS011;18639;50.716;7.086;2022-12-07T02:04:21;10.38;;;3.33;;
32130;SDS011;18639;50.716;7.086;2022-12-07T02:06:47;6.75;;;2.42;;
32130;SDS011;18639;50.716;7.086;2022-12-07T02:09:13;9.68;;;3.40;;
32130;SDS011;18639;50.716;7.086;2022-12-07T02:11:39;8.95;;;3.40;;
32130;SDS011;18639;50.716;7.086;2022-12-07T02:14:05;11.48;;;3.40;;
32130;SDS011;18639;50.716;7.086;2022-12-07T02:28:12;12.80;;;3.67;;
32130;SDS011;18639;50.716;7.086;2022-12-07T02:30:52;9.63;;;3.78;;
32130;SDS011;18639;50.716;7.086;2022-12-07T02:33:24;9.38;;;3.50;;
32130;SDS011;18639;50.716;7.086;2022-12-07T02:36:02;6.75;;;2.90;;
32130;SDS011;18639;50.716;7.086;2022-12-07T02:41:27;7.57;;;2.72;;
32130;SDS011;18639;50.716;7.086;2022-12-07T02:43:59;11.02;;;3.67;;
32130;SDS011;18639;50.716;7.086;2022-12-07T02:46:29;12.75;;;3.50;;
32130;SDS011;18639;50.716;7.086;2022-12-07T02:48:58;7.85;;;3.33;;
32130;SDS011;18639;50.716;7.086;2022-12-07T02:51:24;10.85;;;3.95;;
32130;SDS011;18639;50.716;7.086;2022-12-07T02:53:50;11.00;;;4.25;;
32130;SDS011;18639;50.716;7.086;2022-12-07T03:07:05;12.68;;;3.60;;
32130;SDS011;18639;50.716;7.086;2022-12-07T03:09:43;9.10;;;3.60;;
32130;SDS011;18639;50.716;7.086;2022-12-07T03:12:26;11.68;;;4.13;;
32130;SDS011;18639;50.716;7.086;2022-12-07T03:15:02;8.45;;;3.40;;
32130;SDS011;18639;50.716;7.086;2022-12-07T03:17:35;13.18;;;3.42;;
32130;SDS011;18639;50.716;7.086;2022-12-07T03:20:05;9.43;;;3.92;;
32130;SDS011;18639;50.716;7.086;2022-12-07T03:22:34;8.52;;;3.22;;
32130;SDS011;18639;50.716;7.086;2022-12-07T03:25:06;7.95;;;3.33;;
32130;SDS011;18639;50.716;7.086;2022-12-07T03:30:18;6.90;;;3.13;;
32130;SDS011;18639;50.716;7.086;2022-12-07T03:35:43;10.43;;;3.80;;
32130;SDS011;18639;50.716;7.086;2022-12-07T03:38:15;7.55;;;3.22;;
32130;SDS011;18639;50.716;7.086;2022-12-07T03:43:34;11.50;;;3.83;;
32130;SDS011;18639;50.716;7.086;2022-12-07T03:46:17;12.05;;;3.28;;
32130;SDS011;18639;50.716;7.086;2022-12-07T03:48:46;10.60;;;3.08;;
32130;SDS011;18639;50.716;7.086;2022-12-07T03:51:27;8.35;;;3.63;;
32130;SDS011;18639;50.716;7.086;2022-12-07T03:54:07;9.88;;;3.40;;
32130;SDS011;18639;50.716;7.086;2022-12-07T03:56:46;12.93;;;3.33;;
32130;SDS011;18639;50.716;7.086;2022-12-07T03:59:14;12.75;;;3.15;;
32130;SDS011;18639;50.716;7.086;2022-12-07T04:01:44;10.60;;;3.10;;
32130;SDS011;18639;50.716;7.086;2022-12-07T04:04:15;6.95;;;2.88;;
32130;SDS011;18639;50.716;7.086;2022-12-07T04:06:41;11.40;;;2.78;;
32130;SDS011;18639;50.716;7.086;2022-12-07T04:09:06;8.27;;;3.50;;
32130;SDS011;18639;50.716;7.086;2022-12-07T04:11:31;10.73;;;3.70;;
32130;SDS011;18639;50.716;7.086;2022-12-07T04:13:57;11.48;;;3.75;;
32130;SDS011;18639;50.716;7.086;2022-12-07T04:16:40;11.20;;;3.95;;
32130;SDS011;18639;50.716;7.086;2022-12-07T04:19:06;11.07;;;3.65;;
32130;SDS011;18639;50.716;7.086;2022-12-07T04:21:31;8.05;;;3.00;;
32130;SDS011;18639;50.716;7.086;2022-12-07T04:23:56;7.78;;;3.53;;
32130;SDS011;18639;50.716;7.086;2022-12-07T04:26:21;6.18;;;2.38;;
32130;SDS011;18639;50.716;7.086;2022-12-07T04:28:47;8.68;;;3.13;;
32130;SDS011;18639;50.716;7.086;2022-12-07T04:31:12;8.45;;;3.10;;
32130;SDS011;18639;50.716;7.086;2022-12-07T04:33:37;6.97;;;2.75;;
32130;SDS011;18639;50.716;7.086;2022-12-07T04:36:03;11.88;;;3.70;;
32130;SDS011;18639;50.716;7.086;2022-12-07T04:38:28;8.80;;;3.28;;
32130;SDS011;18639;50.716;7.086;2022-12-07T04:40:53;11.73;;;3.05;;
32130;SDS011;18639;50.716;7.086;2022-12-07T04:43:19;10.77;;;3.15;;
32130;SDS011;18639;50.716;7.086;2022-12-07T04:45:47;11.55;;;3.50;;
32130;SDS011;18639;50.716;7.086;2022-12-07T04:48:13;9.60;;;2.97;;
32130;SDS011;18639;50.716;7.086;2022-12-07T04:50:39;9.77;;;3.47;;
32130;SDS011;18639;50.716;7.086;2022-12-07T04:53:04;8.75;;;2.85;;
32130;SDS011;18639;50.716;7.086;2022-12-07T04:55:30;10.63;;;3.13;;
32130;SDS011;18639;50.716;7.086;2022-12-07T04:57:55;10.48;;;3.20;;
32130;SDS011;18639;50.716;7.086;2022-12-07T05:00:20;9.05;;;2.95;;
32130;SDS011;18639;50.716;7.086;2022-12-07T05:02:46;10.38;;;3.33;;
32130;SDS011;18639;50.716;7.086;2022-12-07T05:05:11;11.60;;;3.05;;
32130;SDS011;18639;50.716;7.086;2022-12-07T05:07:36;6.03;;;3.20;;
32130;SDS011;18639;50.716;7.086;2022-12-07T05:10:02;6.70;;;2.75;;
32130;SDS011;18639;50.716;7.086;2022-12-07T05:12:27;9.93;;;2.90;;
32130;SDS011;18639;50.716;7.086;2022-12-07T05:14:52;8.82;;;3.45;;
32130;SDS011;18639;50.716;7.086;2022-12-07T05:17:18;6.53;;;3.03;;
32130;SDS011;18639;50.716;7.086;2022-12-07T05:19:43;8.30;;;3.28;;
32130;SDS011;18639;50.716;7.086;2022-12-07T05:22:08;9.15;;;2.97;;
32130;SDS011;18639;50.716;7.086;2022-12-07T05:24:34;8.32;;;2.85;;
32130;SDS011;18639;50.716;7.086;2022-12-07T05:26:59;8.88;;;3.47;;
32130;SDS011;18639;50.716;7.086;2022-12-07T05:29:25;10.38;;;3.47;;
32130;SDS011;18639;50.716;7.086;2022-12-07T05:31:50;7.07;;;2.83;;
32130;SDS011;18639;50.716;7.086;2022-12-07T05:34:15;9.13;;;2.85;;
32130;SDS011;18639;50.716;7.086;2022-12-07T05:36:41;7.70;;;2.92;;
32130;SDS011;18639;50.716;7.086;2022-12-07T05:39:07;10.05;;;3.22;;
32130;SDS011;18639;50.716;7.086;2022-12-07T05:41:32;8.68;;;2.90;;
32130;SDS011;18639;50.716;7.086;2022-12-07T05:44:16;19.80;;;3.97;;
32130;SDS011;18639;50.716;7.086;2022-12-07T05:46:41;11.52;;;3.15;;
32130;SDS011;18639;50.716;7.086;2022-12-07T05:49:07;11.25;;;2.95;;
32130;SDS011;18639;50.716;7.086;2022-12-07T05:51:32;11.10;;;3.25;;
32130;SDS011;18639;50.716;7.086;2022-12-07T05:53:57;6.25;;;2.90;;
32130;SDS011;18639;50.716;7.086;2022-12-07T05:56:23;8.15;;;3.08;;
32130;SDS011;18639;50.716;7.086;2022-12-07T05:58:48;9.88;;;3.17;;
32130;SDS011;18639;50.716;7.086;2022-12-07T06:01:32;8.73;;;3.03;;
32130;SDS011;18639;50.716;7.086;2022-12-07T06:03:57;9.18;;;3.05;;
32130;SDS011;18639;50.716;7.086;2022-12-07T06:06:23;10.98;;;3.38;;
32130;SDS011;18639;50.716;7.086;2022-12-07T06:08:48;8.68;;;3.50;;
32130;SDS011;18639;50.716;7.086;2022-12-07T06:11:13;6.75;;;2.70;;
32130;SDS011;18639;50.716;7.086;2022-12-07T06:13:57;5.80;;;2.30;;
32130;SDS011;18639;50.716;7.086;2022-12-07T06:16:22;6.63;;;2.70;;
32130;SDS011;18639;50.716;7.086;2022-12-07T06:18:47;15.82;;;2.83;;
32130;SDS011;18639;50.716;7.086;2022-12-07T06:21:13;6.57;;;2.70;;
32130;SDS011;18639;50.716;7.086;2022-12-07T06:23:39;4.00;;;2.03;;
32130;SDS011;18639;50.716;7.086;2022-12-07T06:26:04;7.85;;;3.05;;
32130;SDS011;18639;50.716;7.086;2022-12-07T06:28:29;8.40;;;2.63;;
32130;SDS011;18639;50.716;7.086;2022-12-07T06:30:58;9.48;;;3.15;;
32130;SDS011;18639;50.716;7.086;2022-12-07T06:33:24;6.80;;;2.35;;
32130;SDS011;18639;50.716;7.086;2022-12-07T06:35:50;11.80;;;3.13;;
32130;SDS011;18639;50.716;7.086;2022-12-07T06:38:16;11.88;;;3.90;;
32130;SDS011;18639;50.716;7.086;2022-12-07T06:40:41;9.45;;;3.47;;
32130;SDS011;18639;50.716;7.086;2022-12-07T06:43:06;10.75;;;2.85;;
32130;SDS011;18639;50.716;7.086;2022-12-07T06:45:32;9.85;;;3.03;;
32130;SDS011;18639;50.716;7.086;2022-12-07T06:47:58;9.80;;;3.15;;
32130;SDS011;18639;50.716;7.086;2022-12-07T06:50:23;11.85;;;3.88;;
32130;SDS011;18639;50.716;7.086;2022-12-07T06:52:48;9.60;;;3.05;;
32130;SDS011;18639;50.716;7.086;2022-12-07T06:55:15;11.45;;;3.38;;
32130;SDS011;18639;50.716;7.086;2022-12-07T06:57:41;10.18;;;3.30;;
32130;SDS011;18639;50.716;7.086;2022-12-07T07:00:06;11.40;;;2.58;;
32130;SDS011;18639;50.716;7.086;2022-12-07T07:02:32;7.68;;;3.20;;
32130;SDS011;18639;50.716;7.086;2022-12-07T07:04:57;8.75;;;2.60;;
32130;SDS011;18639;50.716;7.086;2022-12-07T07:07:22;7.60;;;3.00;;
32130;SDS011;18639;50.716;7.086;2022-12-07T07:09:48;5.05;;;2.22;;
32130;SDS011;18639;50.716;7.086;2022-12-07T07:12:13;5.95;;;2.83;;
32130;SDS011;18639;50.716;7.086;2022-12-07T07:14:38;9.63;;;2.45;;
32130;SDS011;18639;50.716;7.086;2022-12-07T07:17:03;6.68;;;2.25;;
32130;SDS011;18639;50.716;7.086;2022-12-07T07:19:29;7.40;;;2.72;;
32130;SDS011;18639;50.716;7.086;2022-12-07T07:21:54;4.75;;;2.30;;
32130;SDS011;18639;50.716;7.086;2022-12-07T07:24:19;8.23;;;2.47;;
32130;SDS011;18639;50.716;7.086;2022-12-07T07:26:44;3.30;;;1.75;;
32130;SDS011;18639;50.716;7.086;2022-12-07T07:29:10;6.95;;;2.30;;
32130;SDS011;18639;50.716;7.086;2022-12-07T07:31:35;4.10;;;2.20;;
32130;SDS011;18639;50.716;7.086;2022-12-07T07:34:02;5.88;;;2.35;;
32130;SDS011;18639;50.716;7.086;2022-12-07T07:36:27;5.85;;;2.28;;
32130;SDS011;18639;50.716;7.086;2022-12-07T07:38:52;4.82;;;2.22;;
32130;SDS011;18639;50.716;7.086;2022-12-07T07:41:17;6.65;;;2.83;;
32130;SDS011;18639;50.716;7.086;2022-12-07T07:43:43;6.43;;;2.47;;
32130;SDS011;18639;50.716;7.086;2022-12-07T07:46:08;5.15;;;2.28;;
32130;SDS011;18639;50.716;7.086;2022-12-07T07:48:33;9.73;;;2.33;;
32130;SDS011;18639;50.716;7.086;2022-12-07T07:50:58;6.60;;;1.98;;
32130;SDS011;18639;50.716;7.086;2022-12-07T07:53:24;6.57;;;2.38;;
32130;SDS011;18639;50.716;7.086;2022-12-07T07:55:50;6.95;;;2.55;;
32130;SDS011;18639;50.716;7.086;2022-12-07T07:58:17;10.05;;;2.33;;
32130;SDS011;18639;50.716;7.086;2022-12-07T08:00:42;6.63;;;2.55;;
32130;SDS011;18639;50.716;7.086;2022-12-07T08:03:07;9.60;;;3.03;;
32130;SDS011;18639;50.716;7.086;2022-12-07T08:05:33;8.48;;;2.78;;
32130;SDS011;18639;50.716;7.086;2022-12-07T08:07:58;6.03;;;2.60;;
32130;SDS011;18639;50.716;7.086;2022-12-07T08:10:23;4.97;;;2.10;;
32130;SDS011;18639;50.716;7.086;2022-12-07T08:12:49;11.82;;;2.20;;
32130;SDS011;18639;50.716;7.086;2022-12-07T08:15:38;7.22;;;2.22;;
32130;SDS011;18639;50.716;7.086;2022-12-07T08:18:05;5.05;;;2.50;;
32130;SDS011;18639;50.716;7.086;2022-12-07T08:20:31;9.85;;;2.35;;
32130;SDS011;18639;50.716;7.086;2022-12-07T08:22:57;12.15;;;3.20;;
32130;SDS011;18639;50.716;7.086;2022-12-07T08:25:23;6.90;;;2.78;;
32130;SDS011;18639;50.716;7.086;2022-12-07T08:27:48;7.93;;;2.75;;
32130;SDS011;18639;50.716;7.086;2022-12-07T08:30:14;7.80;;;3.20;;
32130;SDS011;18639;50.716;7.086;2022-12-07T08:32:40;9.30;;;3.15;;
32130;SDS011;18639;50.716;7.086;2022-12-07T08:35:06;8.73;;;2.95;;
32130;SDS011;18639;50.716;7.086;2022-12-07T08:37:32;9.13;;;3.38;;
32130;SDS011;18639;50.716;7.086;2022-12-07T08:39:57;7.80;;;3.00;;
32130;SDS011;18639;50.716;7.086;2022-12-07T08:42:23;8.50;;;2.47;;
32130;SDS011;18639;50.716;7.086;2022-12-07T08:44:52;9.48;;;2.85;;
32130;SDS011;18639;50.716;7.086;2022-12-07T08:47:18;7.28;;;2.55;;
32130;SDS011;18639;50.716;7.086;2022-12-07T08:49:44;10.13;;;2.45;;
32130;SDS011;18639;50.716;7.086;2022-12-07T08:52:13;7.75;;;2.40;;
32130;SDS011;18639;50.716;7.086;2022-12-07T08:54:39;6.22;;;2.58;;
32130;SDS011;18639;50.716;7.086;2022-12-07T08:57:05;10.02;;;2.65;;
32130;SDS011;18639;50.716;7.086;2022-12-07T08:59:32;6.78;;;2.80;;
32130;SDS011;18639;50.716;7.086;2022-12-07T09:01:59;7.05;;;2.75;;
32130;SDS011;18639;50.716;7.086;2022-12-07T09:04:24;8.63;;;2.60;;
32130;SDS011;18639;50.716;7.086;2022-12-07T09:06:50;4.72;;;2.25;;
32130;SDS011;18639;50.716;7.086;2022-12-07T09:09:15;5.75;;;2.20;;
32130;SDS011;18639;50.716;7.086;2022-12-07T09:11:41;5.63;;;2.47;;
32130;SDS011;18639;50.716;7.086;2022-12-07T09:14:06;6.43;;;2.42;;
32130;SDS011;18639;50.716;7.086;2022-12-07T09:16:31;8.95;;;2.50;;
32130;SDS011;18639;50.716;7.086;2022-12-07T09:18:57;7.32;;;2.28;;
32130;SDS011;18639;50.716;7.086;2022-12-07T09:21:22;9.50;;;2.70;;
32130;SDS011;18639;50.716;7.086;2022-12-07T09:23:47;7.53;;;2.60;;
32130;SDS011;18639;50.716;7.086;2022-12-07T09:26:13;11.93;;;3.03;;
32130;SDS011;18639;50.716;7.086;2022-12-07T09:28:38;6.88;;;2.33;;
32130;SDS011;18639;50.716;7.086;2022-12-07T09:31:05;6.80;;;3.17;;
32130;SDS011;18639;50.716;7.086;2022-12-07T09:33:30;3.50;;;1.92;;
32130;SDS011;18639;50.716;7.086;2022-12-07T09:35:56;4.63;;;1.63;;
32130;SDS011;18639;50.716;7.086;2022-12-07T09:38:21;5.25;;;2.15;;
32130;SDS011;18639;50.716;7.086;2022-12-07T09:40:47;7.43;;;1.77;;
32130;SDS011;18639;50.716;7.086;2022-12-07T09:43:22;5.22;;;2.20;;
32130;SDS011;18639;50.716;7.086;2022-12-07T09:45:50;5.32;;;2.53;;
32130;SDS011;18639;50.716;7.086;2022-12-07T09:48:20;4.13;;;1.58;;
32130;SDS011;18639;50.716;7.086;2022-12-07T09:50:47;5.53;;;2.05;;
32130;SDS011;18639;50.716;7.086;2022-12-07T09:53:19;5.50;;;1.75;;
32130;SDS011;18639;50.716;7.086;2022-12-07T09:55:50;5.18;;;1.88;;
32130;SDS011;18639;50.716;7.086;2022-12-07T09:58:23;9.07;;;2.30;;
32130;SDS011;18639;50.716;7.086;2022-12-07T10:00:55;5.70;;;1.65;;
32130;SDS011;18639;50.716;7.086;2022-12-07T10:03:23;2.47;;;1.60;;
32130;SDS011;18639;50.716;7.086;2022-12-07T10:05:51;5.10;;;2.42;;
32130;SDS011;18639;50.716;7.086;2022-12-07T10:08:17;8.45;;;1.95;;
32130;SDS011;18639;50.716;7.086;2022-12-07T10:10:44;6.75;;;2.03;;
32130;SDS011;18639;50.716;7.086;2022-12-07T10:13:11;4.63;;;1.85;;
32130;SDS011;18639;50.716;7.086;2022-12-07T10:15:42;6.45;;;2.10;;
32130;SDS011;18639;50.716;7.086;2022-12-07T10:18:18;5.95;;;2.20;;
32130;SDS011;18639;50.716;7.086;2022-12-07T10:23:42;4.95;;;1.52;;
32130;SDS011;18639;50.716;7.086;2022-12-07T10:28:58;2.13;;;1.25;;
32130;SDS011;18639;50.716;7.086;2022-12-07T10:31:26;5.40;;;2.17;;
32130;SDS011;18639;50.716;7.086;2022-12-07T10:33:53;6.45;;;2.05;;
32130;SDS011;18639;50.716;7.086;2022-12-07T10:36:33;9.55;;;1.73;;
32130;SDS011;18639;50.716;7.086;2022-12-07T10:39:10;7.18;;;1.83;;
32130;SDS011;18639;50.716;7.086;2022-12-07T10:44:24;6.97;;;2.25;;
32130;SDS011;18639;50.716;7.086;2022-12-07T10:47:38;2.80;;;1.52;;
32130;SDS011;18639;50.716;7.086;2022-12-07T10:52:58;4.35;;;2.17;;
32130;SDS011;18639;50.716;7.086;2022-12-07T11:00:56;6.80;;;2.10;;
32130;SDS011;18639;50.716;7.086;2022-12-07T11:06:10;5.00;;;1.50;;
32130;SDS011;18639;50.716;7.086;2022-12-07T11:08:53;4.57;;;1.48;;
32130;SDS011;18639;50.716;7.086;2022-12-07T11:20:11;4.32;;;1.50;;
32130;SDS011;18639;50.716;7.086;2022-12-07T11:25:38;3.30;;;1.30;;
32130;SDS011;18639;50.716;7.086;2022-12-07T11:31:03;3.05;;;1.13;;
32130;SDS011;18639;50.716;7.086;2022-12-07T11:33:49;2.45;;;0.88;;
32130;SDS011;18639;50.716;7.086;2022-12-07T11:36:43;1.85;;;0.90;;
32130;SDS011;18639;50.716;7.086;2022-12-07T11:42:02;3.00;;;1.35;;
32130;SDS011;18639;50.716;7.086;2022-12-07T11:44:39;3.38;;;1.80;;
32130;SDS011;18639;50.716;7.086;2022-12-07T11:47:18;2.47;;;1.02;;
32130;SDS011;18639;50.716;7.086;2022-12-07T11:52:50;1.88;;;0.90;;
32130;SDS011;18639;50.716;7.086;2022-12-07T11:58:09;2.08;;;1.13;;
32130;SDS011;18639;50.716;7.086;2022-12-07T12:00:47;1.90;;;1.17;;
32130;SDS011;18639;50.716;7.086;2022-12-07T12:03:16;1.20;;;0.73;;
32130;SDS011;18639;50.716;7.086;2022-12-07T12:05:55;4.55;;;1.38;;
32130;SDS011;18639;50.716;7.086;2022-12-07T12:08:26;1.15;;;0.82;;
32130;SDS011;18639;50.716;7.086;2022-12-07T12:11:00;3.15;;;1.10;;
32130;SDS011;18639;50.716;7.086;2022-12-07T12:13:43;2.90;;;1.45;;
32130;SDS011;18639;50.716;7.086;2022-12-07T12:22:27;3.03;;;1.20;;
32130;SDS011;18639;50.716;7.086;2022-12-07T12:25:05;2.15;;;1.10;;
32130;SDS011;18639;50.716;7.086;2022-12-07T12:27:37;3.08;;;1.38;;
32130;SDS011;18639;50.716;7.086;2022-12-07T12:30:05;1.95;;;0.95;;
32130;SDS011;18639;50.716;7.086;2022-12-07T12:32:48;5.43;;;1.60;;
32130;SDS011;18639;50.716;7.086;2022-12-07T12:35:48;2.05;;;1.25;;
32130;SDS011;18639;50.716;7.086;2022-12-07T12:40:52;1.90;;;0.98;;
32130;SDS011;18639;50.716;7.086;2022-12-07T12:49:14;2.88;;;1.67;;
32130;SDS011;18639;50.716;7.086;2022-12-07T12:51:53;1.85;;;1.00;;
32130;SDS011;18639;50.716;7.086;2022-12-07T12:54:21;3.22;;;1.35;;
32130;SDS011;18639;50.716;7.086;2022-12-07T12:56:59;2.70;;;1.13;;
32130;SDS011;18639;50.716;7.086;2022-12-07T12:59:32;5.30;;;1.70;;
32130;SDS011;18639;50.716;7.086;2022-12-07T13:10:24;5.22;;;1.35;;
32130;SDS011;18639;50.716;7.086;2022-12-07T13:20:41;1.92;;;1.08;;
32130;SDS011;18639;50.716;7.086;2022-12-07T13:23:17;7.30;;;2.33;;
32130;SDS011;18639;50.716;7.086;2022-12-07T13:25:55;2.17;;;1.15;;
32130;SDS011;18639;50.716;7.086;2022-12-07T13:28:32;1.88;;;1.10;;
32130;SDS011;18639;50.716;7.086;2022-12-07T13:31:09;2.20;;;0.98;;
32130;SDS011;18639;50.716;7.086;2022-12-07T13:33:39;5.97;;;1.30;;
32130;SDS011;18639;50.716;7.086;2022-12-07T13:36:04;2.45;;;1.10;;
32130;SDS011;18639;50.716;7.086;2022-12-07T13:38:37;7.65;;;1.30;;
32130;SDS011;18639;50.716;7.086;2022-12-07T13:41:14;2.60;;;1.35;;
32130;SDS011;18639;50.716;7.086;2022-12-07T13:43:45;4.10;;;1.38;;
32130;SDS011;18639;50.716;7.086;2022-12-07T13:46:15;2.45;;;1.25;;
32130;SDS011;18639;50.716;7.086;2022-12-07T13:48:45;4.32;;;1.40;;
32130;SDS011;18639;50.716;7.086;2022-12-07T13:51:19;2.97;;;1.40;;
32130;SDS011;18639;50.716;7.086;2022-12-07T13:53:48;3.58;;;1.63;;
32130;SDS011;18639;50.716;7.086;2022-12-07T13:56:34;2.40;;;1.20;;
32130;SDS011;18639;50.716;7.086;2022-12-07T13:59:00;1.88;;;1.15;;
32130;SDS011;18639;50.716;7.086;2022-12-07T14:01:26;2.30;;;1.33;;
32130;SDS011;18639;50.716;7.086;2022-12-07T14:03:53;1.95;;;1.10;;
32130;SDS011;18639;50.716;7.086;2022-12-07T14:06:27;2.45;;;1.17;;
32130;SDS011;18639;50.716;7.086;2022-12-07T14:09:06;1.48;;;0.88;;
32130;SDS011;18639;50.716;7.086;2022-12-07T14:11:49;0.85;;;0.70;;
32130;SDS011;18639;50.716;7.086;2022-12-07T14:14:29;1.27;;;0.77;;
32130;SDS011;18639;50.716;7.086;2022-12-07T14:16:57;1.92;;;0.70;;
32130;SDS011;18639;50.716;7.086;2022-12-07T14:19:40;1.38;;;0.70;;
32130;SDS011;18639;50.716;7.086;2022-12-07T14:22:09;4.50;;;1.10;;
32130;SDS011;18639;50.716;7.086;2022-12-07T14:24:45;4.35;;;1.05;;
32130;SDS011;18639;50.716;7.086;2022-12-07T14:27:19;2.60;;;0.80;;
32130;SDS011;18639;50.716;7.086;2022-12-07T14:29:46;1.60;;;0.95;;
32130;SDS011;18639;50.716;7.086;2022-12-07T14:32:23;0.95;;;0.57;;
32130;SDS011;18639;50.716;7.086;2022-12-07T14:34:54;2.65;;;1.13;;
32130;SDS011;18639;50.716;7.086;2022-12-07T14:37:21;3.40;;;1.15;;
32130;SDS011;18639;50.716;7.086;2022-12-07T14:39:46;3.38;;;0.90;;
32130;SDS011;18639;50.716;7.086;2022-12-07T14:42:11;2.58;;;1.10;;
32130;SDS011;18639;50.716;7.086;2022-12-07T14:44:37;1.90;;;1.20;;
32130;SDS011;18639;50.716;7.086;2022-12-07T14:47:02;1.58;;;0.80;;
32130;SDS011;18639;50.716;7.086;2022-12-07T14:49:27;2.03;;;1.00;;
32130;SDS011;18639;50.716;7.086;2022-12-07T14:51:53;2.22;;;1.23;;
32130;SDS011;18639;50.716;7.086;2022-12-07T14:54:19;5.43;;;1.60;;
32130;SDS011;18639;50.716;7.086;2022-12-07T14:56:48;3.63;;;1.50;;
32130;SDS011;18639;50.716;7.086;2022-12-07T14:59:16;2.75;;;1.40;;
32130;SDS011;18639;50.716;7.086;2022-12-07T15:01:41;5.30;;;1.50;;
32130;SDS011;18639;50.716;7.086;2022-12-07T15:04:06;2.47;;;1.10;;
32130;SDS011;18639;50.716;7.086;2022-12-07T15:06:32;3.65;;;1.55;;
32130;SDS011;18639;50.716;7.086;2022-12-07T15:08:57;5.05;;;1.38;;
32130;SDS011;18639;50.716;7.086;2022-12-07T15:11:22;4.13;;;1.50;;
32130;SDS011;18639;50.716;7.086;2022-12-07T15:13:48;2.58;;;1.40;;
32130;SDS011;18639;50.716;7.086;2022-12-07T15:16:32;8.02;;;1.88;;
32130;SDS011;18639;50.716;7.086;2022-12-07T15:18:57;8.55;;;2.55;;
32130;SDS011;18639;50.716;7.086;2022-12-07T15:21:23;6.93;;;1.80;;
32130;SDS011;18639;50.716;7.086;2022-12-07T15:23:48;6.60;;;2.05;;
32130;SDS011;18639;50.716;7.086;2022-12-07T15:26:13;5.75;;;2.00;;
32130;SDS011;18639;50.716;7.086;2022-12-07T15:28:39;7.25;;;2.95;;
32130;SDS011;18639;50.716;7.086;2022-12-07T15:31:11;6.85;;;2.53;;
32130;SDS011;18639;50.716;7.086;2022-12-07T15:33:38;4.10;;;1.63;;
32130;SDS011;18639;50.716;7.086;2022-12-07T15:36:03;3.97;;;1.77;;
32130;SDS011;18639;50.716;7.086;2022-12-07T15:38:29;6.13;;;1.92;;
32130;SDS011;18639;50.716;7.086;2022-12-07T15:40:55;7.15;;;1.77;;
32130;SDS011;18639;50.716;7.086;2022-12-07T15:43:21;3.97;;;1.70;;
32130;SDS011;18639;50.716;7.086;2022-12-07T15:46:05;4.57;;;1.67;;
32130;SDS011;18639;50.716;7.086;2022-12-07T15:48:30;3.92;;;1.88;;
32130;SDS011;18639;50.716;7.086;2022-12-07T15:51:06;3.20;;;1.38;;
32130;SDS011;18639;50.716;7.086;2022-12-07T15:53:33;3.95;;;1.60;;
32130;SDS011;18639;50.716;7.086;2022-12-07T15:56:00;2.72;;;1.30;;
32130;SDS011;18639;50.716;7.086;2022-12-07T15:58:30;3.83;;;1.70;;
32130;SDS011;18639;50.716;7.086;2022-12-07T16:00:55;4.00;;;1.85;;
32130;SDS011;18639;50.716;7.086;2022-12-07T16:03:21;2.85;;;1.42;;
32130;SDS011;18639;50.716;7.086;2022-12-07T16:05:49;3.92;;;1.70;;
32130;SDS011;18639;50.716;7.086;2022-12-07T16:08:16;6.47;;;1.80;;
32130;SDS011;18639;50.716;7.086;2022-12-07T16:10:41;6.32;;;1.90;;
32130;SDS011;18639;50.716;7.086;2022-12-07T16:13:10;6.30;;;1.73;;
32130;SDS011;18639;50.716;7.086;2022-12-07T16:15:39;3.10;;;1.58;;
32130;SDS011;18639;50.716;7.086;2022-12-07T16:18:05;6.53;;;1.83;;
32130;SDS011;18639;50.716;7.086;2022-12-07T16:20:30;2.15;;;1.15;;
32130;SDS011;18639;50.716;7.086;2022-12-07T16:22:56;2.63;;;1.35;;
32130;SDS011;18639;50.716;7.086;2022-12-07T16:25:22;4.72;;;1.63;;
32130;SDS011;18639;50.716;7.086;2022-12-07T16:27:48;3.38;;;1.77;;
32130;SDS011;18639;50.716;7.086;2022-12-07T16:30:14;3.65;;;1.75;;
32130;SDS011;18639;50.716;7.086;2022-12-07T16:32:41;4.53;;;2.08;;
32130;SDS011;18639;50.716;7.086;2022-12-07T16:35:07;3.88;;;1.50;;
32130;SDS011;18639;50.716;7.086;2022-12-07T16:37:32;4.10;;;1.45;;
32130;SDS011;18639;50.716;7.086;2022-12-07T16:39:58;2.45;;;1.60;;
32130;SDS011;18639;50.716;7.086;2022-12-07T16:42:23;4.10;;;1.58;;
32130;SDS011;18639;50.716;7.086;2022-12-07T16:44:48;4.20;;;2.10;;
32130;SDS011;18639;50.716;7.086;2022-12-07T16:47:13;3.05;;;1.30;;